This is the latest recevied weather packets stored in our database for station/object HB9ZRH-10. If no packets are shown the sender has not sent any weather packets the latest 1 day(s).
| Time | Temp. | Humidity | Pressure | Rain* | Wind** | Luminosity | Snow |
|---|---|---|---|---|---|---|---|
| 1778072336 | 13.33° C | 57% | 1008 hPa | - | - | - | - |
| 1778072036 | 15° C | 55% | 1007.9 hPa | - | - | - | - |
| 1778071736 | 17.22° C | 51% | 1007.8 hPa | - | - | - | - |
| 1778071436 | 16.11° C | 54% | 1007.7 hPa | - | - | - | - |
| 1778071136 | 16.67° C | 55% | 1007.5 hPa | - | - | - | - |
| 1778070836 | 15° C | 57% | 1007.5 hPa | - | - | - | - |
| 1778070536 | 15.56° C | 56% | 1007.1 hPa | - | - | - | - |
| 1778070236 | 13.33° C | 56% | 1007.3 hPa | - | - | - | - |
| 1778069936 | 12.78° C | 56% | 1007.1 hPa | - | - | - | - |
| 1778069336 | 16.11° C | 54% | 1006.8 hPa | - | - | - | - |
| 1778069036 | 15.56° C | 55% | 1007.1 hPa | - | - | - | - |
| 1778068736 | 14.44° C | 55% | 1006.9 hPa | - | - | - | - |
| 1778068436 | 15° C | 54% | 1006.9 hPa | - | - | - | - |
| 1778068136 | 15° C | 54% | 1006.8 hPa | - | - | - | - |
| 1778067836 | 16.11° C | 53% | 1006.9 hPa | - | - | - | - |
| 1778067536 | 15.56° C | 53% | 1006.7 hPa | - | - | - | - |
| 1778067236 | 16.11° C | 53% | 1006.8 hPa | - | - | - | - |
| 1778066936 | 16.11° C | 52% | 1006.7 hPa | - | - | - | - |
| 1778066636 | 18.33° C | 51% | 1006.6 hPa | - | - | - | - |
| 1778066336 | 17.22° C | 52% | 1006.7 hPa | - | - | - | - |
| 1778066036 | 15° C | 54% | 1006.8 hPa | - | - | - | - |
| 1778065736 | 15° C | 53% | 1006.7 hPa | - | - | - | - |
| 1778065436 | 16.11° C | 52% | 1006.7 hPa | - | - | - | - |
| 1778065136 | 16.11° C | 52% | 1006.8 hPa | - | - | - | - |
| 1778064836 | 17.22° C | 50% | 1006.8 hPa | - | - | - | - |
* Rain since midnight (hover to see other rain measurements)
** Current wind speed in m/s (hover to see current wind gust speed)